Terminal Aerodrome Forecast
Issued by NWS

Home | Current Version | Previous Version | Graphics & Text | Print | Product List | Glossary On
Versions: 1 2 3 4 5 6 7 8 9 10 11 12 13 14 15 16 17
000
FTUS45 KGGW 261120
TAFSDY
TAF
KSDY 261120Z 2612/2712 28011G20KT P6SM BKN035
     FM261300 28015G23KT P6SM BKN045
     FM261700 29016G24KT P6SM SCT035
     FM270000 31009KT P6SM SCT070
     FM270300 29005KT P6SM FEW070=

USA.gov is the U.S. government's official web portal to all federal, state and local government web resources and services.